sensor_id;sensor_type;location;lat;lon;timestamp;temperature;humidity
51884;DHT22;37915;53.254;6.598;2023-04-25T00:00:35;6.70;99.90
51884;DHT22;37915;53.254;6.598;2023-04-25T00:03:01;6.70;99.90
51884;DHT22;37915;53.254;6.598;2023-04-25T00:05:27;7.10;99.90
51884;DHT22;37915;53.254;6.598;2023-04-25T00:07:52;7.00;99.90
51884;DHT22;37915;53.254;6.598;2023-04-25T00:10:19;6.60;99.90
51884;DHT22;37915;53.254;6.598;2023-04-25T00:12:45;6.60;99.90
51884;DHT22;37915;53.254;6.598;2023-04-25T00:15:11;6.60;99.90
51884;DHT22;37915;53.254;6.598;2023-04-25T00:17:37;6.60;99.90
51884;DHT22;37915;53.254;6.598;2023-04-25T00:20:04;7.10;99.90
51884;DHT22;37915;53.254;6.598;2023-04-25T00:22:30;6.60;99.90
51884;DHT22;37915;53.254;6.598;2023-04-25T00:24:56;6.60;99.90
51884;DHT22;37915;53.254;6.598;2023-04-25T00:27:25;6.60;99.90
51884;DHT22;37915;53.254;6.598;2023-04-25T00:29:51;6.80;99.90
51884;DHT22;37915;53.254;6.598;2023-04-25T00:32:17;6.50;99.90
51884;DHT22;37915;53.254;6.598;2023-04-25T00:34:42;6.50;99.90
51884;DHT22;37915;53.254;6.598;2023-04-25T00:37:08;6.30;99.90
51884;DHT22;37915;53.254;6.598;2023-04-25T00:39:34;6.30;99.90
51884;DHT22;37915;53.254;6.598;2023-04-25T00:42:00;6.30;99.90
51884;DHT22;37915;53.254;6.598;2023-04-25T00:44:27;6.20;99.90
51884;DHT22;37915;53.254;6.598;2023-04-25T00:46:55;7.00;99.90
51884;DHT22;37915;53.254;6.598;2023-04-25T00:49:20;6.70;99.90
51884;DHT22;37915;53.254;6.598;2023-04-25T00:51:46;6.20;99.90
51884;DHT22;37915;53.254;6.598;2023-04-25T00:54:12;6.20;99.90
51884;DHT22;37915;53.254;6.598;2023-04-25T00:56:39;6.20;99.90
51884;DHT22;37915;53.254;6.598;2023-04-25T00:59:05;6.20;99.90
51884;DHT22;37915;53.254;6.598;2023-04-25T01:01:32;6.20;99.90
51884;DHT22;37915;53.254;6.598;2023-04-25T01:03:58;6.20;99.90
51884;DHT22;37915;53.254;6.598;2023-04-25T01:06:24;6.20;99.90
51884;DHT22;37915;53.254;6.598;2023-04-25T01:08:51;6.30;99.90
51884;DHT22;37915;53.254;6.598;2023-04-25T01:11:17;6.20;99.90
51884;DHT22;37915;53.254;6.598;2023-04-25T01:13:43;6.20;99.90
51884;DHT22;37915;53.254;6.598;2023-04-25T01:16:08;6.20;99.90
51884;DHT22;37915;53.254;6.598;2023-04-25T01:18:35;6.20;99.90
51884;DHT22;37915;53.254;6.598;2023-04-25T01:21:09;6.20;99.90
51884;DHT22;37915;53.254;6.598;2023-04-25T01:23:39;6.20;99.90
51884;DHT22;37915;53.254;6.598;2023-04-25T01:26:06;6.20;99.90
51884;DHT22;37915;53.254;6.598;2023-04-25T01:28:33;6.10;99.90
51884;DHT22;37915;53.254;6.598;2023-04-25T01:30:59;6.10;99.90
51884;DHT22;37915;53.254;6.598;2023-04-25T01:33:25;6.60;99.90
51884;DHT22;37915;53.254;6.598;2023-04-25T01:35:51;6.10;99.90
51884;DHT22;37915;53.254;6.598;2023-04-25T01:38:17;6.10;99.90
51884;DHT22;37915;53.254;6.598;2023-04-25T01:40:45;7.00;99.90
51884;DHT22;37915;53.254;6.598;2023-04-25T01:43:11;6.30;99.90
51884;DHT22;37915;53.254;6.598;2023-04-25T01:45:41;6.10;99.90
51884;DHT22;37915;53.254;6.598;2023-04-25T01:48:08;6.00;99.90
51884;DHT22;37915;53.254;6.598;2023-04-25T01:50:34;6.20;99.90
51884;DHT22;37915;53.254;6.598;2023-04-25T01:52:59;6.00;99.90
51884;DHT22;37915;53.254;6.598;2023-04-25T01:55:27;6.10;99.90
51884;DHT22;37915;53.254;6.598;2023-04-25T01:57:53;5.00;99.90
51884;DHT22;37915;53.254;6.598;2023-04-25T02:00:18;6.00;99.90
51884;DHT22;37915;53.254;6.598;2023-04-25T02:02:44;6.10;99.90
51884;DHT22;37915;53.254;6.598;2023-04-25T02:05:10;6.90;99.90
51884;DHT22;37915;53.254;6.598;2023-04-25T02:07:36;6.40;99.90
51884;DHT22;37915;53.254;6.598;2023-04-25T02:10:01;6.10;99.90
51884;DHT22;37915;53.254;6.598;2023-04-25T02:12:28;6.00;99.90
51884;DHT22;37915;53.254;6.598;2023-04-25T02:14:54;6.00;99.90
51884;DHT22;37915;53.254;6.598;2023-04-25T02:17:20;6.00;99.90
51884;DHT22;37915;53.254;6.598;2023-04-25T02:19:47;5.90;99.90
51884;DHT22;37915;53.254;6.598;2023-04-25T02:22:13;5.90;99.90
51884;DHT22;37915;53.254;6.598;2023-04-25T02:24:39;5.80;99.90
51884;DHT22;37915;53.254;6.598;2023-04-25T02:27:04;5.90;99.90
51884;DHT22;37915;53.254;6.598;2023-04-25T02:29:30;5.90;99.90
51884;DHT22;37915;53.254;6.598;2023-04-25T02:31:56;5.80;99.90
51884;DHT22;37915;53.254;6.598;2023-04-25T02:34:22;6.10;99.90
51884;DHT22;37915;53.254;6.598;2023-04-25T02:36:48;5.70;99.90
51884;DHT22;37915;53.254;6.598;2023-04-25T02:39:16;5.80;99.90
51884;DHT22;37915;53.254;6.598;2023-04-25T02:41:42;6.10;99.90
51884;DHT22;37915;53.254;6.598;2023-04-25T02:44:08;6.20;99.90
51884;DHT22;37915;53.254;6.598;2023-04-25T02:46:34;6.40;99.90
51884;DHT22;37915;53.254;6.598;2023-04-25T02:48:59;5.70;99.90
51884;DHT22;37915;53.254;6.598;2023-04-25T02:51:25;5.80;99.90
51884;DHT22;37915;53.254;6.598;2023-04-25T02:53:51;6.00;99.90
51884;DHT22;37915;53.254;6.598;2023-04-25T02:56:17;5.70;99.90
51884;DHT22;37915;53.254;6.598;2023-04-25T02:58:43;6.20;99.90
51884;DHT22;37915;53.254;6.598;2023-04-25T03:01:08;5.90;99.90
51884;DHT22;37915;53.254;6.598;2023-04-25T03:03:34;6.10;99.90
51884;DHT22;37915;53.254;6.598;2023-04-25T03:06:00;5.70;99.90
51884;DHT22;37915;53.254;6.598;2023-04-25T03:08:26;5.70;99.90
51884;DHT22;37915;53.254;6.598;2023-04-25T03:10:54;5.70;99.90
51884;DHT22;37915;53.254;6.598;2023-04-25T03:13:21;5.60;99.90
51884;DHT22;37915;53.254;6.598;2023-04-25T03:15:46;5.60;99.90
51884;DHT22;37915;53.254;6.598;2023-04-25T03:18:12;5.60;99.90
51884;DHT22;37915;53.254;6.598;2023-04-25T03:20:38;5.60;99.90
51884;DHT22;37915;53.254;6.598;2023-04-25T03:23:04;5.50;99.90
51884;DHT22;37915;53.254;6.598;2023-04-25T03:25:30;5.50;99.90
51884;DHT22;37915;53.254;6.598;2023-04-25T03:27:56;5.50;99.90
51884;DHT22;37915;53.254;6.598;2023-04-25T03:30:22;5.50;99.90
51884;DHT22;37915;53.254;6.598;2023-04-25T03:32:48;5.40;99.90
51884;DHT22;37915;53.254;6.598;2023-04-25T03:35:13;5.30;99.90
51884;DHT22;37915;53.254;6.598;2023-04-25T03:37:39;5.30;99.90
51884;DHT22;37915;53.254;6.598;2023-04-25T03:40:06;5.90;99.90
51884;DHT22;37915;53.254;6.598;2023-04-25T03:42:32;5.20;99.90
51884;DHT22;37915;53.254;6.598;2023-04-25T03:44:57;5.60;99.90
51884;DHT22;37915;53.254;6.598;2023-04-25T03:47:23;5.10;99.90
51884;DHT22;37915;53.254;6.598;2023-04-25T03:49:49;5.10;99.90
51884;DHT22;37915;53.254;6.598;2023-04-25T03:52:17;5.60;99.90
51884;DHT22;37915;53.254;6.598;2023-04-25T03:54:43;5.10;99.90
51884;DHT22;37915;53.254;6.598;2023-04-25T03:57:09;6.00;99.90
51884;DHT22;37915;53.254;6.598;2023-04-25T03:59:35;5.10;99.90
51884;DHT22;37915;53.254;6.598;2023-04-25T04:02:01;5.50;99.90
51884;DHT22;37915;53.254;6.598;2023-04-25T04:04:27;5.10;99.90
51884;DHT22;37915;53.254;6.598;2023-04-25T04:06:52;5.10;99.90
51884;DHT22;37915;53.254;6.598;2023-04-25T04:09:18;5.10;99.90
51884;DHT22;37915;53.254;6.598;2023-04-25T04:11:44;5.40;99.90
51884;DHT22;37915;53.254;6.598;2023-04-25T04:14:10;5.00;99.90
51884;DHT22;37915;53.254;6.598;2023-04-25T04:16:36;5.70;99.90
51884;DHT22;37915;53.254;6.598;2023-04-25T04:19:02;5.00;99.90
51884;DHT22;37915;53.254;6.598;2023-04-25T04:21:28;4.90;99.90
51884;DHT22;37915;53.254;6.598;2023-04-25T04:23:54;5.50;99.90
51884;DHT22;37915;53.254;6.598;2023-04-25T04:26:20;5.70;99.90
51884;DHT22;37915;53.254;6.598;2023-04-25T04:28:52;4.80;99.90
51884;DHT22;37915;53.254;6.598;2023-04-25T04:31:20;4.80;99.90
51884;DHT22;37915;53.254;6.598;2023-04-25T04:33:47;5.90;99.90
51884;DHT22;37915;53.254;6.598;2023-04-25T04:36:12;4.90;99.90
51884;DHT22;37915;53.254;6.598;2023-04-25T04:38:38;4.60;99.90
51884;DHT22;37915;53.254;6.598;2023-04-25T04:41:05;4.60;99.90
51884;DHT22;37915;53.254;6.598;2023-04-25T04:43:31;4.50;99.90
51884;DHT22;37915;53.254;6.598;2023-04-25T04:46:00;5.20;99.90
51884;DHT22;37915;53.254;6.598;2023-04-25T04:48:26;5.30;99.90
51884;DHT22;37915;53.254;6.598;2023-04-25T04:50:52;4.60;99.90
51884;DHT22;37915;53.254;6.598;2023-04-25T04:53:18;4.50;99.90
51884;DHT22;37915;53.254;6.598;2023-04-25T04:55:43;4.50;99.90
51884;DHT22;37915;53.254;6.598;2023-04-25T04:58:09;5.90;99.90
51884;DHT22;37915;53.254;6.598;2023-04-25T05:00:35;4.90;99.90
51884;DHT22;37915;53.254;6.598;2023-04-25T05:03:00;4.60;99.90
51884;DHT22;37915;53.254;6.598;2023-04-25T05:05:26;4.60;99.90
51884;DHT22;37915;53.254;6.598;2023-04-25T05:07:52;5.50;99.90
51884;DHT22;37915;53.254;6.598;2023-04-25T05:10:18;4.60;99.90
51884;DHT22;37915;53.254;6.598;2023-04-25T05:12:44;4.70;99.90
51884;DHT22;37915;53.254;6.598;2023-04-25T05:15:10;4.70;99.90
51884;DHT22;37915;53.254;6.598;2023-04-25T05:17:36;4.80;99.90
51884;DHT22;37915;53.254;6.598;2023-04-25T05:20:02;5.30;99.90
51884;DHT22;37915;53.254;6.598;2023-04-25T05:22:31;4.80;99.90
51884;DHT22;37915;53.254;6.598;2023-04-25T05:24:56;4.80;99.90
51884;DHT22;37915;53.254;6.598;2023-04-25T05:27:22;4.80;99.90
51884;DHT22;37915;53.254;6.598;2023-04-25T05:29:48;4.80;99.90
51884;DHT22;37915;53.254;6.598;2023-04-25T05:32:14;5.30;99.90
51884;DHT22;37915;53.254;6.598;2023-04-25T05:34:39;4.80;99.90
51884;DHT22;37915;53.254;6.598;2023-04-25T05:37:05;5.00;99.90
51884;DHT22;37915;53.254;6.598;2023-04-25T05:39:31;4.90;99.90
51884;DHT22;37915;53.254;6.598;2023-04-25T05:41:57;4.90;99.90
51884;DHT22;37915;53.254;6.598;2023-04-25T05:44:23;4.90;99.90
51884;DHT22;37915;53.254;6.598;2023-04-25T05:46:48;4.90;99.90
51884;DHT22;37915;53.254;6.598;2023-04-25T05:49:14;5.00;99.90
51884;DHT22;37915;53.254;6.598;2023-04-25T05:51:40;5.00;99.90
51884;DHT22;37915;53.254;6.598;2023-04-25T05:54:05;5.00;99.90
51884;DHT22;37915;53.254;6.598;2023-04-25T05:56:31;5.20;99.90
51884;DHT22;37915;53.254;6.598;2023-04-25T05:58:57;5.40;99.90
51884;DHT22;37915;53.254;6.598;2023-04-25T06:01:23;5.10;99.90
51884;DHT22;37915;53.254;6.598;2023-04-25T06:03:49;5.20;99.90
51884;DHT22;37915;53.254;6.598;2023-04-25T06:06:14;5.10;99.90
51884;DHT22;37915;53.254;6.598;2023-04-25T06:08:40;5.20;99.90
51884;DHT22;37915;53.254;6.598;2023-04-25T06:11:06;5.50;99.90
51884;DHT22;37915;53.254;6.598;2023-04-25T06:13:32;5.50;99.90
51884;DHT22;37915;53.254;6.598;2023-04-25T06:15:58;5.40;99.90
51884;DHT22;37915;53.254;6.598;2023-04-25T06:18:23;5.40;99.90
51884;DHT22;37915;53.254;6.598;2023-04-25T06:20:49;5.50;99.90
51884;DHT22;37915;53.254;6.598;2023-04-25T06:23:15;5.50;99.90
51884;DHT22;37915;53.254;6.598;2023-04-25T06:25:40;5.70;99.90
51884;DHT22;37915;53.254;6.598;2023-04-25T06:28:06;5.50;99.90
51884;DHT22;37915;53.254;6.598;2023-04-25T06:30:31;5.80;99.90
51884;DHT22;37915;53.254;6.598;2023-04-25T06:32:57;5.70;99.90
51884;DHT22;37915;53.254;6.598;2023-04-25T06:35:23;5.80;99.90
51884;DHT22;37915;53.254;6.598;2023-04-25T06:37:48;5.90;99.90
51884;DHT22;37915;53.254;6.598;2023-04-25T06:40:14;6.10;99.90
51884;DHT22;37915;53.254;6.598;2023-04-25T06:42:40;6.30;99.90
51884;DHT22;37915;53.254;6.598;2023-04-25T06:45:06;6.50;99.90
51884;DHT22;37915;53.254;6.598;2023-04-25T06:47:32;6.70;99.90
51884;DHT22;37915;53.254;6.598;2023-04-25T06:49:57;6.80;99.90
51884;DHT22;37915;53.254;6.598;2023-04-25T06:52:23;7.10;99.90
51884;DHT22;37915;53.254;6.598;2023-04-25T06:54:49;7.00;99.90
51884;DHT22;37915;53.254;6.598;2023-04-25T06:57:14;7.10;99.90
51884;DHT22;37915;53.254;6.598;2023-04-25T06:59:40;7.00;99.90
51884;DHT22;37915;53.254;6.598;2023-04-25T07:02:06;7.00;99.90
51884;DHT22;37915;53.254;6.598;2023-04-25T07:04:32;6.90;99.90
51884;DHT22;37915;53.254;6.598;2023-04-25T07:06:57;6.80;99.90
51884;DHT22;37915;53.254;6.598;2023-04-25T07:09:23;6.70;99.90
51884;DHT22;37915;53.254;6.598;2023-04-25T07:11:49;6.70;99.90
51884;DHT22;37915;53.254;6.598;2023-04-25T07:14:15;6.80;99.90
51884;DHT22;37915;53.254;6.598;2023-04-25T07:16:40;6.80;99.90
51884;DHT22;37915;53.254;6.598;2023-04-25T07:19:07;6.90;99.90
51884;DHT22;37915;53.254;6.598;2023-04-25T07:21:32;6.90;99.90
51884;DHT22;37915;53.254;6.598;2023-04-25T07:23:58;7.10;99.90
51884;DHT22;37915;53.254;6.598;2023-04-25T07:26:24;7.10;99.90
51884;DHT22;37915;53.254;6.598;2023-04-25T07:28:50;7.20;99.90
51884;DHT22;37915;53.254;6.598;2023-04-25T07:31:19;7.20;99.90
51884;DHT22;37915;53.254;6.598;2023-04-25T07:33:45;7.30;99.90
51884;DHT22;37915;53.254;6.598;2023-04-25T07:36:11;7.30;99.90
51884;DHT22;37915;53.254;6.598;2023-04-25T07:38:38;7.30;99.90
51884;DHT22;37915;53.254;6.598;2023-04-25T07:41:04;7.20;99.90
51884;DHT22;37915;53.254;6.598;2023-04-25T07:43:29;7.20;99.90
51884;DHT22;37915;53.254;6.598;2023-04-25T07:45:56;7.20;99.90
51884;DHT22;37915;53.254;6.598;2023-04-25T07:48:22;7.10;99.90
51884;DHT22;37915;53.254;6.598;2023-04-25T07:50:47;7.10;99.90
51884;DHT22;37915;53.254;6.598;2023-04-25T07:53:14;7.10;99.90
51884;DHT22;37915;53.254;6.598;2023-04-25T07:55:40;7.00;99.90
51884;DHT22;37915;53.254;6.598;2023-04-25T07:58:06;7.00;99.90
51884;DHT22;37915;53.254;6.598;2023-04-25T08:00:32;7.00;99.90
51884;DHT22;37915;53.254;6.598;2023-04-25T08:02:58;7.10;99.90
51884;DHT22;37915;53.254;6.598;2023-04-25T08:05:23;7.20;99.90
51884;DHT22;37915;53.254;6.598;2023-04-25T08:07:49;7.30;99.90
51884;DHT22;37915;53.254;6.598;2023-04-25T08:10:15;7.40;99.90
51884;DHT22;37915;53.254;6.598;2023-04-25T08:12:41;7.30;99.90
51884;DHT22;37915;53.254;6.598;2023-04-25T08:15:07;6.90;99.90
51884;DHT22;37915;53.254;6.598;2023-04-25T08:17:33;6.50;99.90
51884;DHT22;37915;53.254;6.598;2023-04-25T08:19:59;6.40;99.90
51884;DHT22;37915;53.254;6.598;2023-04-25T08:22:25;6.10;99.90
51884;DHT22;37915;53.254;6.598;2023-04-25T08:24:50;6.00;99.90
51884;DHT22;37915;53.254;6.598;2023-04-25T08:27:17;5.90;99.90
51884;DHT22;37915;53.254;6.598;2023-04-25T08:29:43;5.80;99.90
51884;DHT22;37915;53.254;6.598;2023-04-25T08:32:09;5.80;99.90
51884;DHT22;37915;53.254;6.598;2023-04-25T08:34:34;5.80;99.90
51884;DHT22;37915;53.254;6.598;2023-04-25T08:37:02;7.20;99.90
51884;DHT22;37915;53.254;6.598;2023-04-25T08:39:29;6.20;99.90
51884;DHT22;37915;53.254;6.598;2023-04-25T08:41:56;6.00;99.90
51884;DHT22;37915;53.254;6.598;2023-04-25T08:44:22;6.20;99.90
51884;DHT22;37915;53.254;6.598;2023-04-25T08:46:49;6.40;99.90
51884;DHT22;37915;53.254;6.598;2023-04-25T08:49:17;6.30;99.90
51884;DHT22;37915;53.254;6.598;2023-04-25T08:51:45;6.80;99.90
51884;DHT22;37915;53.254;6.598;2023-04-25T08:54:13;6.60;99.90
51884;DHT22;37915;53.254;6.598;2023-04-25T08:56:45;6.90;99.90
51884;DHT22;37915;53.254;6.598;2023-04-25T08:59:13;7.50;99.90
51884;DHT22;37915;53.254;6.598;2023-04-25T09:01:39;7.50;99.90
51884;DHT22;37915;53.254;6.598;2023-04-25T09:04:05;7.60;99.90
51884;DHT22;37915;53.254;6.598;2023-04-25T09:06:31;7.90;99.90
51884;DHT22;37915;53.254;6.598;2023-04-25T09:09:04;8.10;99.90
51884;DHT22;37915;53.254;6.598;2023-04-25T09:11:30;8.30;99.90
51884;DHT22;37915;53.254;6.598;2023-04-25T09:14:26;8.30;99.90
51884;DHT22;37915;53.254;6.598;2023-04-25T09:19:22;8.30;99.90
51884;DHT22;37915;53.254;6.598;2023-04-25T09:21:49;8.50;99.90
51884;DHT22;37915;53.254;6.598;2023-04-25T09:24:15;8.70;99.90
51884;DHT22;37915;53.254;6.598;2023-04-25T09:26:41;8.80;99.90
51884;DHT22;37915;53.254;6.598;2023-04-25T09:29:07;8.50;99.90
51884;DHT22;37915;53.254;6.598;2023-04-25T09:31:33;8.30;99.90
51884;DHT22;37915;53.254;6.598;2023-04-25T09:33:59;8.10;99.90
51884;DHT22;37915;53.254;6.598;2023-04-25T09:36:27;7.90;99.90
51884;DHT22;37915;53.254;6.598;2023-04-25T09:38:54;7.80;99.90
51884;DHT22;37915;53.254;6.598;2023-04-25T09:41:24;7.90;99.90
51884;DHT22;37915;53.254;6.598;2023-04-25T09:43:50;8.20;99.90
51884;DHT22;37915;53.254;6.598;2023-04-25T09:46:16;8.40;99.90
51884;DHT22;37915;53.254;6.598;2023-04-25T09:48:50;8.70;99.90
51884;DHT22;37915;53.254;6.598;2023-04-25T09:51:16;9.00;99.90
51884;DHT22;37915;53.254;6.598;2023-04-25T09:53:44;9.20;99.90
51884;DHT22;37915;53.254;6.598;2023-04-25T09:56:12;9.30;99.90
51884;DHT22;37915;53.254;6.598;2023-04-25T09:58:40;9.40;99.90
51884;DHT22;37915;53.254;6.598;2023-04-25T10:01:10;9.30;99.90
51884;DHT22;37915;53.254;6.598;2023-04-25T10:03:39;9.20;99.90
51884;DHT22;37915;53.254;6.598;2023-04-25T10:06:12;9.20;99.90
51884;DHT22;37915;53.254;6.598;2023-04-25T10:08:40;9.20;99.90
51884;DHT22;37915;53.254;6.598;2023-04-25T10:11:08;9.10;99.90
51884;DHT22;37915;53.254;6.598;2023-04-25T10:13:34;8.80;99.90
51884;DHT22;37915;53.254;6.598;2023-04-25T10:16:03;8.40;99.90
51884;DHT22;37915;53.254;6.598;2023-04-25T10:18:29;8.00;99.90
51884;DHT22;37915;53.254;6.598;2023-04-25T10:21:00;7.50;99.90
51884;DHT22;37915;53.254;6.598;2023-04-25T10:23:26;7.10;99.90
51884;DHT22;37915;53.254;6.598;2023-04-25T10:25:53;7.00;99.90
51884;DHT22;37915;53.254;6.598;2023-04-25T10:28:20;7.00;99.90
51884;DHT22;37915;53.254;6.598;2023-04-25T10:31:07;6.90;99.90
51884;DHT22;37915;53.254;6.598;2023-04-25T10:33:37;7.10;99.90
51884;DHT22;37915;53.254;6.598;2023-04-25T10:36:14;7.30;99.90
51884;DHT22;37915;53.254;6.598;2023-04-25T10:38:42;7.70;99.90
51884;DHT22;37915;53.254;6.598;2023-04-25T10:41:09;8.10;99.90
51884;DHT22;37915;53.254;6.598;2023-04-25T10:43:43;8.30;99.90
51884;DHT22;37915;53.254;6.598;2023-04-25T10:46:25;8.30;99.90
51884;DHT22;37915;53.254;6.598;2023-04-25T10:48:52;8.30;99.90
51884;DHT22;37915;53.254;6.598;2023-04-25T10:51:31;8.10;99.90
51884;DHT22;37915;53.254;6.598;2023-04-25T10:56:32;7.80;99.90
51884;DHT22;37915;53.254;6.598;2023-04-25T10:59:13;7.70;99.90
51884;DHT22;37915;53.254;6.598;2023-04-25T11:01:41;7.80;99.90
51884;DHT22;37915;53.254;6.598;2023-04-25T11:07:08;8.40;99.90
51884;DHT22;37915;53.254;6.598;2023-04-25T11:09:38;8.80;99.90
51884;DHT22;37915;53.254;6.598;2023-04-25T11:12:07;9.10;99.90
51884;DHT22;37915;53.254;6.598;2023-04-25T11:14:33;9.30;99.90
51884;DHT22;37915;53.254;6.598;2023-04-25T11:16:59;9.50;99.90
51884;DHT22;37915;53.254;6.598;2023-04-25T11:19:27;9.50;99.90
51884;DHT22;37915;53.254;6.598;2023-04-25T11:21:57;9.40;99.90
51884;DHT22;37915;53.254;6.598;2023-04-25T11:24:33;9.40;99.90
51884;DHT22;37915;53.254;6.598;2023-04-25T11:27:03;9.30;99.90
51884;DHT22;37915;53.254;6.598;2023-04-25T11:29:30;9.40;99.90
51884;DHT22;37915;53.254;6.598;2023-04-25T11:31:57;9.50;99.90
51884;DHT22;37915;53.254;6.598;2023-04-25T11:34:27;9.50;99.90
51884;DHT22;37915;53.254;6.598;2023-04-25T11:36:56;9.70;99.90
51884;DHT22;37915;53.254;6.598;2023-04-25T11:39:23;9.80;99.90
51884;DHT22;37915;53.254;6.598;2023-04-25T11:41:49;10.00;99.90
51884;DHT22;37915;53.254;6.598;2023-04-25T11:44:16;10.10;99.90
51884;DHT22;37915;53.254;6.598;2023-04-25T11:46:42;9.90;99.90
51884;DHT22;37915;53.254;6.598;2023-04-25T11:49:08;9.60;99.90
51884;DHT22;37915;53.254;6.598;2023-04-25T11:51:44;9.60;99.90
51884;DHT22;37915;53.254;6.598;2023-04-25T11:54:11;9.60;99.90
51884;DHT22;37915;53.254;6.598;2023-04-25T11:56:41;9.60;99.90
51884;DHT22;37915;53.254;6.598;2023-04-25T11:59:07;9.50;99.90
51884;DHT22;37915;53.254;6.598;2023-04-25T12:01:35;9.50;99.90
51884;DHT22;37915;53.254;6.598;2023-04-25T12:04:24;9.70;99.90
51884;DHT22;37915;53.254;6.598;2023-04-25T12:06:53;9.90;99.90
51884;DHT22;37915;53.254;6.598;2023-04-25T12:09:37;10.00;99.90
51884;DHT22;37915;53.254;6.598;2023-04-25T12:12:02;10.00;99.90
51884;DHT22;37915;53.254;6.598;2023-04-25T12:14:29;9.90;99.90
51884;DHT22;37915;53.254;6.598;2023-04-25T12:16:57;9.60;99.90
51884;DHT22;37915;53.254;6.598;2023-04-25T12:19:23;9.40;99.90
51884;DHT22;37915;53.254;6.598;2023-04-25T12:21:50;9.40;99.90
51884;DHT22;37915;53.254;6.598;2023-04-25T12:24:24;9.60;99.90
51884;DHT22;37915;53.254;6.598;2023-04-25T12:27:07;9.90;99.90
51884;DHT22;37915;53.254;6.598;2023-04-25T12:29:35;10.00;99.90
51884;DHT22;37915;53.254;6.598;2023-04-25T12:32:01;9.70;99.90
51884;DHT22;37915;53.254;6.598;2023-04-25T12:34:27;9.40;99.90
51884;DHT22;37915;53.254;6.598;2023-04-25T12:36:53;9.00;99.90
51884;DHT22;37915;53.254;6.598;2023-04-25T12:39:23;8.90;99.90
51884;DHT22;37915;53.254;6.598;2023-04-25T12:41:53;9.10;99.90
51884;DHT22;37915;53.254;6.598;2023-04-25T12:44:21;9.10;99.90
51884;DHT22;37915;53.254;6.598;2023-04-25T12:46:48;9.00;99.90
51884;DHT22;37915;53.254;6.598;2023-04-25T13:28:28;9.30;99.90
51884;DHT22;37915;53.254;6.598;2023-04-25T13:30:56;9.90;99.90
51884;DHT22;37915;53.254;6.598;2023-04-25T13:33:22;9.90;99.90
51884;DHT22;37915;53.254;6.598;2023-04-25T13:35:49;9.90;99.90
51884;DHT22;37915;53.254;6.598;2023-04-25T13:38:23;9.90;99.90
51884;DHT22;37915;53.254;6.598;2023-04-25T13:40:49;9.90;99.90
51884;DHT22;37915;53.254;6.598;2023-04-25T13:43:20;10.00;99.90
51884;DHT22;37915;53.254;6.598;2023-04-25T13:45:48;10.20;99.90
51884;DHT22;37915;53.254;6.598;2023-04-25T13:48:14;10.30;99.90
51884;DHT22;37915;53.254;6.598;2023-04-25T13:50:39;10.30;99.90
51884;DHT22;37915;53.254;6.598;2023-04-25T13:53:05;10.30;99.90
51884;DHT22;37915;53.254;6.598;2023-04-25T13:55:31;10.50;99.90
51884;DHT22;37915;53.254;6.598;2023-04-25T13:57:56;10.80;99.90
51884;DHT22;37915;53.254;6.598;2023-04-25T14:00:22;11.10;99.90
51884;DHT22;37915;53.254;6.598;2023-04-25T14:02:48;11.10;99.90
51884;DHT22;37915;53.254;6.598;2023-04-25T14:05:14;11.10;99.90
51884;DHT22;37915;53.254;6.598;2023-04-25T14:07:40;11.10;99.90
51884;DHT22;37915;53.254;6.598;2023-04-25T14:10:06;11.00;99.90
51884;DHT22;37915;53.254;6.598;2023-04-25T14:12:32;10.80;99.90
51884;DHT22;37915;53.254;6.598;2023-04-25T14:14:58;10.60;99.90
51884;DHT22;37915;53.254;6.598;2023-04-25T14:17:24;10.40;99.90
51884;DHT22;37915;53.254;6.598;2023-04-25T14:22:16;10.10;99.90
51884;DHT22;37915;53.254;6.598;2023-04-25T14:24:42;10.00;99.90
51884;DHT22;37915;53.254;6.598;2023-04-25T14:27:08;10.20;99.90
51884;DHT22;37915;53.254;6.598;2023-04-25T14:29:34;10.50;99.90
51884;DHT22;37915;53.254;6.598;2023-04-25T14:32:00;10.30;99.90
51884;DHT22;37915;53.254;6.598;2023-04-25T14:34:26;10.10;99.90
51884;DHT22;37915;53.254;6.598;2023-04-25T14:36:52;9.90;99.90
51884;DHT22;37915;53.254;6.598;2023-04-25T14:39:18;9.80;99.90
51884;DHT22;37915;53.254;6.598;2023-04-25T14:41:44;9.90;99.90
51884;DHT22;37915;53.254;6.598;2023-04-25T14:44:10;9.90;99.90
51884;DHT22;37915;53.254;6.598;2023-04-25T14:46:36;9.70;99.90
51884;DHT22;37915;53.254;6.598;2023-04-25T14:49:03;9.40;99.90
51884;DHT22;37915;53.254;6.598;2023-04-25T14:51:29;9.50;99.90
51884;DHT22;37915;53.254;6.598;2023-04-25T14:53:56;9.60;99.90
51884;DHT22;37915;53.254;6.598;2023-04-25T14:56:22;9.80;99.90
51884;DHT22;37915;53.254;6.598;2023-04-25T14:58:48;10.10;99.90
51884;DHT22;37915;53.254;6.598;2023-04-25T15:01:14;10.20;99.90
51884;DHT22;37915;53.254;6.598;2023-04-25T15:03:40;10.10;99.90
51884;DHT22;37915;53.254;6.598;2023-04-25T15:06:06;10.00;99.90
51884;DHT22;37915;53.254;6.598;2023-04-25T15:08:32;10.00;99.90
51884;DHT22;37915;53.254;6.598;2023-04-25T15:10:58;10.00;99.90
51884;DHT22;37915;53.254;6.598;2023-04-25T15:13:24;10.00;99.90
51884;DHT22;37915;53.254;6.598;2023-04-25T15:15:51;9.80;99.90
51884;DHT22;37915;53.254;6.598;2023-04-25T15:18:20;9.60;99.90
51884;DHT22;37915;53.254;6.598;2023-04-25T15:20:48;9.50;99.90
51884;DHT22;37915;53.254;6.598;2023-04-25T15:23:14;9.40;99.90
51884;DHT22;37915;53.254;6.598;2023-04-25T15:25:47;9.40;99.90
51884;DHT22;37915;53.254;6.598;2023-04-25T15:28:13;9.60;99.90
51884;DHT22;37915;53.254;6.598;2023-04-25T15:30:45;9.90;99.90
51884;DHT22;37915;53.254;6.598;2023-04-25T15:33:10;9.90;99.90
51884;DHT22;37915;53.254;6.598;2023-04-25T15:35:36;9.80;99.90
51884;DHT22;37915;53.254;6.598;2023-04-25T15:38:02;9.90;99.90
51884;DHT22;37915;53.254;6.598;2023-04-25T15:40:27;10.00;99.90
51884;DHT22;37915;53.254;6.598;2023-04-25T15:42:53;10.20;99.90
51884;DHT22;37915;53.254;6.598;2023-04-25T15:45:21;10.20;99.90
51884;DHT22;37915;53.254;6.598;2023-04-25T15:47:49;10.20;99.90
51884;DHT22;37915;53.254;6.598;2023-04-25T15:50:16;10.20;99.90
51884;DHT22;37915;53.254;6.598;2023-04-25T15:52:42;10.10;99.90
51884;DHT22;37915;53.254;6.598;2023-04-25T15:55:08;9.90;99.90
51884;DHT22;37915;53.254;6.598;2023-04-25T15:57:35;9.80;99.90
51884;DHT22;37915;53.254;6.598;2023-04-25T16:00:05;9.90;99.90
51884;DHT22;37915;53.254;6.598;2023-04-25T16:02:43;9.90;99.90
51884;DHT22;37915;53.254;6.598;2023-04-25T16:05:09;9.90;99.90
51884;DHT22;37915;53.254;6.598;2023-04-25T16:07:36;9.90;99.90
51884;DHT22;37915;53.254;6.598;2023-04-25T16:10:02;9.80;99.90
51884;DHT22;37915;53.254;6.598;2023-04-25T16:12:29;9.90;99.90
51884;DHT22;37915;53.254;6.598;2023-04-25T16:14:55;9.90;99.90
51884;DHT22;37915;53.254;6.598;2023-04-25T16:17:26;10.00;99.90
51884;DHT22;37915;53.254;6.598;2023-04-25T16:19:54;10.10;99.90
51884;DHT22;37915;53.254;6.598;2023-04-25T16:22:20;10.20;99.90
51884;DHT22;37915;53.254;6.598;2023-04-25T16:24:46;10.30;99.90
51884;DHT22;37915;53.254;6.598;2023-04-25T16:27:12;10.20;99.90
51884;DHT22;37915;53.254;6.598;2023-04-25T16:29:38;10.20;99.90
51884;DHT22;37915;53.254;6.598;2023-04-25T16:32:03;10.20;99.90